Startpagina
METAR-TAF:

METAR-TAF

Vliegvelden :

Tébessa, Algerije

breedte: 35-29N, lengte: 008-08E, hoogte: 813 m

Actueel weer

Dit bericht is 32 minuten geleden gemaakt, om 14:00 UTC
Wind 12 kt uit het noordwesten
Temperatuur 18°C
Vochtigheid 22%
Druk 1015 hPa
Zicht 10 km of meer
Weinig wolken op 4000 ft
Gebroken wolken op 23300 ft

METAR: DABS 261400Z 32012KT 9999 FEW040 BKN233 18/M04 Q1015

Tijdstip: 15:32 (14:32 UTC)

Verwachting

Dit bericht is 3 uur en het 32 minuten geleden gemaakt, om 11:00 UTC
Verwachting geldig van 26 om 12 UTC tot 27 om 12 UTC
Wind 13 kt uit het noordnoordwesten
Zicht 10 km of meer
Weinig wolken op 3300 ft
Verspreide wolken op 4000 ft
Wijzigt naar
van 26 om 20 UTC tot 26 om 23 UTC
Wind 8 kt uit het westen

TAF: DABS 261100Z 2612/2712 33013KT 9999 FEW033 SCT040 BECMG 2620/2623 27008KT

Waarnemingen en weersverwachtingen van meer dan 4000 vliegvelden (METAR en TAF).

De beschikbare stations zijn de gele en rode punten op de kaart.

Ga met uw muis naar het station om de naam te zien.

Klik dan om waarnemingen en weersverwachtingen te zien.

kaart wijzigen: klik op de groene knoppen met een zwart kruis om in te zoomen, op de groene knop met een streepje om uit te zoomen of op de groene pijlen voor aangrenzende kaarten.


METAR-TAF: